Time;durP1;ratioP1;P1;durP2;ratioP2;P2;SDS_P1;SDS_P2;PMS_P1;PMS_P2;Temp;Humidity;BMP_temperature;BMP_pressure;BME280_temperature;BME280_humidity;BME280_pressure;Samples;Min_cycle;Max_cycle;Signal;HPM_P1;HPM_P2
2022/04/18 00:00:08;;;;;;;10.45;6.28;;;;;;;;;;5004971;28;20093;-85
2022/04/18 00:02:35;;;;;;;11.68;6.60;;;;;;;;;;4981710;28;20153;-83
2022/04/18 00:05:02;;;;;;;11.40;6.93;;;;;;;;;;4977419;28;20509;-82
2022/04/18 00:07:28;;;;;;;14.10;7.03;;;;;;;;;;4974203;28;20109;-83
2022/04/18 00:09:55;;;;;;;11.90;7.22;;;;;;;;;;4974145;28;20058;-83
2022/04/18 00:12:21;;;;;;;12.98;7.40;;;;;;;;;;4976546;28;20920;-83
2022/04/18 00:14:48;;;;;;;11.23;7.38;;;;;;;;;;4990341;28;20039;-84
2022/04/18 00:17:14;;;;;;;14.07;8.20;;;;;;;;;;4978057;28;20082;-82
2022/04/18 00:19:41;;;;;;;12.15;7.93;;;;;;;;;;4970426;28;20115;-83
2022/04/18 00:22:07;;;;;;;13.38;8.40;;;;;;;;;;4989546;28;20589;-85
2022/04/18 00:24:33;;;;;;;13.98;8.30;;;;;;;;;;5006313;28;20085;-83
2022/04/18 00:27:04;;;;;;;13.85;8.98;;;;;;;;;;4995487;28;20050;-83
2022/04/18 00:29:31;;;;;;;15.15;8.95;;;;;;;;;;4981296;28;20046;-83
2022/04/18 00:31:57;;;;;;;16.20;9.05;;;;;;;;;;4989013;28;20510;-83
2022/04/18 00:34:24;;;;;;;14.90;9.45;;;;;;;;;;4988958;28;20061;-85
2022/04/18 00:36:50;;;;;;;15.85;9.43;;;;;;;;;;4976948;28;20132;-84
2022/04/18 00:39:16;;;;;;;17.92;10.02;;;;;;;;;;5000564;28;20146;-82
2022/04/18 00:41:43;;;;;;;15.52;9.50;;;;;;;;;;4974063;28;20137;-82
2022/04/18 00:44:09;;;;;;;18.25;9.57;;;;;;;;;;4992729;28;21019;-83
2022/04/18 00:46:36;;;;;;;16.80;10.10;;;;;;;;;;4989705;28;20135;-82
2022/04/18 00:49:02;;;;;;;17.13;9.90;;;;;;;;;;4972849;28;20087;-82
2022/04/18 00:51:29;;;;;;;17.27;10.07;;;;;;;;;;4992430;28;20090;-82
2022/04/18 00:53:56;;;;;;;18.60;10.52;;;;;;;;;;4990514;28;20050;-83
2022/04/18 00:56:23;;;;;;;16.88;9.77;;;;;;;;;;4976560;28;21005;-82
2022/04/18 00:58:50;;;;;;;15.15;10.15;;;;;;;;;;4974347;28;20411;-83
2022/04/18 01:01:17;;;;;;;18.08;11.05;;;;;;;;;;4978852;28;20035;-82
2022/04/18 01:03:44;;;;;;;18.50;11.52;;;;;;;;;;4981828;28;20058;-83
2022/04/18 01:06:10;;;;;;;19.10;12.73;;;;;;;;;;4993309;28;20089;-83
2022/04/18 01:08:37;;;;;;;20.02;12.13;;;;;;;;;;4981354;28;20055;-82
2022/04/18 01:11:07;;;;;;;17.17;10.95;;;;;;;;;;4994871;28;20154;-82
2022/04/18 01:13:40;;;;;;;17.60;11.73;;;;;;;;;;4986723;28;20136;-83
2022/04/18 01:16:07;;;;;;;18.33;12.00;;;;;;;;;;4983176;28;20510;-83
2022/04/18 01:18:34;;;;;;;16.30;11.32;;;;;;;;;;4969279;28;20059;-82
2022/04/18 01:21:00;;;;;;;18.27;11.77;;;;;;;;;;4988355;28;20517;-84
2022/04/18 01:23:27;;;;;;;19.85;12.85;;;;;;;;;;4991844;28;20050;-82
2022/04/18 01:31:23;;;;;;;19.25;12.30;;;;;;;;;;4995997;28;20074;-83
2022/04/18 01:33:49;;;;;;;20.13;12.68;;;;;;;;;;4991581;28;20509;-83
2022/04/18 01:36:16;;;;;;;20.60;12.30;;;;;;;;;;5004874;28;20058;-81
2022/04/18 01:38:42;;;;;;;19.70;12.35;;;;;;;;;;4994507;28;20533;-82
2022/04/18 01:41:08;;;;;;;21.80;12.93;;;;;;;;;;4968019;28;20050;-83
2022/04/18 01:43:35;;;;;;;19.52;12.45;;;;;;;;;;5004508;28;20137;-83
2022/04/18 01:46:01;;;;;;;18.88;12.35;;;;;;;;;;4979072;28;20077;-84
2022/04/18 01:48:28;;;;;;;19.23;13.02;;;;;;;;;;4982456;28;20039;-83
2022/04/18 01:50:54;;;;;;;20.70;12.90;;;;;;;;;;4987703;28;20219;-82
2022/04/18 01:53:21;;;;;;;19.10;12.95;;;;;;;;;;5002365;28;20054;-84
2022/04/18 01:55:47;;;;;;;21.02;13.32;;;;;;;;;;4974698;28;20529;-86
2022/04/18 01:58:13;;;;;;;20.70;12.75;;;;;;;;;;4990334;28;20129;-84
2022/04/18 02:00:40;;;;;;;21.52;12.75;;;;;;;;;;4989664;28;20054;-83
2022/04/18 02:03:06;;;;;;;22.33;13.02;;;;;;;;;;5002301;28;20070;-83
2022/04/18 02:05:33;;;;;;;20.42;12.98;;;;;;;;;;4975091;28;20059;-83
2022/04/18 02:08:00;;;;;;;20.15;12.77;;;;;;;;;;4993358;28;20422;-84
2022/04/18 02:10:26;;;;;;;20.23;13.23;;;;;;;;;;4999203;28;20138;-83
2022/04/18 02:12:52;;;;;;;23.98;13.50;;;;;;;;;;4983449;28;20055;-84
2022/04/18 02:15:21;;;;;;;20.13;13.27;;;;;;;;;;5000662;28;20054;-84
2022/04/18 02:17:47;;;;;;;18.95;12.77;;;;;;;;;;4981260;28;20107;-84
2022/04/18 02:20:13;;;;;;;21.55;12.98;;;;;;;;;;4996816;28;20141;-83
2022/04/18 02:22:40;;;;;;;18.27;12.35;;;;;;;;;;4997362;28;20067;-83
2022/04/18 02:25:06;;;;;;;19.15;12.05;;;;;;;;;;4993225;28;20096;-83
2022/04/18 02:27:33;;;;;;;19.75;11.70;;;;;;;;;;5001363;28;20501;-83
2022/04/18 02:29:59;;;;;;;16.98;11.73;;;;;;;;;;4995169;28;20145;-84
2022/04/18 02:35:11;;;;;;;19.15;11.95;;;;;;;;;;4991793;28;20089;-83
2022/04/18 02:37:37;;;;;;;18.08;12.07;;;;;;;;;;4974240;28;20521;-83
2022/04/18 02:40:05;;;;;;;18.52;12.52;;;;;;;;;;4972895;28;20510;-84
2022/04/18 02:42:31;;;;;;;19.50;11.90;;;;;;;;;;4975453;28;20133;-83
2022/04/18 02:44:57;;;;;;;18.88;11.05;;;;;;;;;;4979037;28;20110;-84
2022/04/18 02:47:24;;;;;;;17.40;10.65;;;;;;;;;;4988017;28;20051;-84
2022/04/18 02:49:51;;;;;;;16.23;10.32;;;;;;;;;;4977343;28;20058;-84
2022/04/18 02:52:17;;;;;;;16.38;9.68;;;;;;;;;;5001468;28;20585;-84
2022/04/18 02:54:44;;;;;;;16.15;10.32;;;;;;;;;;4975094;28;20051;-84
2022/04/18 02:57:11;;;;;;;14.88;9.45;;;;;;;;;;4974579;28;20588;-83
2022/04/18 02:59:41;;;;;;;17.17;9.90;;;;;;;;;;4990220;28;20110;-83
2022/04/18 03:02:07;;;;;;;16.35;10.00;;;;;;;;;;4970077;28;20086;-85
2022/04/18 03:04:34;;;;;;;18.00;9.90;;;;;;;;;;5001653;28;20504;-84
2022/04/18 03:07:03;;;;;;;15.20;9.65;;;;;;;;;;4994531;28;20043;-85
2022/04/18 03:09:29;;;;;;;18.27;9.35;;;;;;;;;;4979974;28;20118;-84
2022/04/18 03:11:56;;;;;;;14.18;9.07;;;;;;;;;;4986744;28;20101;-85
2022/04/18 03:14:23;;;;;;;16.92;10.43;;;;;;;;;;4977664;28;20082;-84
2022/04/18 03:16:50;;;;;;;16.30;9.80;;;;;;;;;;4982716;28;20106;-83
2022/04/18 03:19:16;;;;;;;15.35;10.30;;;;;;;;;;4983105;28;20114;-85
2022/04/18 03:21:43;;;;;;;15.00;9.80;;;;;;;;;;4978503;28;20102;-84
2022/04/18 03:24:09;;;;;;;17.88;10.50;;;;;;;;;;4985709;28;20051;-84
2022/04/18 03:26:35;;;;;;;15.85;10.10;;;;;;;;;;5006952;28;20054;-84
2022/04/18 03:29:02;;;;;;;15.30;10.55;;;;;;;;;;4995481;28;20089;-84
2022/04/18 03:31:28;;;;;;;16.80;10.27;;;;;;;;;;4974648;28;20118;-84
2022/04/18 03:33:55;;;;;;;14.25;9.82;;;;;;;;;;5008768;28;20106;-84
2022/04/18 03:41:51;;;;;;;17.50;10.00;;;;;;;;;;4991871;28;20552;-84
2022/04/18 03:44:18;;;;;;;17.95;9.80;;;;;;;;;;4999528;28;20062;-84
2022/04/18 03:46:45;;;;;;;16.63;9.75;;;;;;;;;;4976914;28;20117;-84
2022/04/18 03:49:11;;;;;;;15.50;9.40;;;;;;;;;;4968434;28;20138;-83
2022/04/18 03:51:37;;;;;;;16.85;9.65;;;;;;;;;;4991162;28;20087;-83
2022/04/18 03:54:03;;;;;;;14.80;9.50;;;;;;;;;;4991304;28;20113;-83
2022/04/18 03:56:30;;;;;;;12.75;8.52;;;;;;;;;;4973072;28;20090;-84
2022/04/18 03:58:56;;;;;;;13.43;8.80;;;;;;;;;;4990936;28;20101;-83
2022/04/18 04:01:23;;;;;;;16.25;9.50;;;;;;;;;;4959096;28;20078;-83
2022/04/18 04:03:50;;;;;;;18.77;9.45;;;;;;;;;;4984862;28;20552;-83
2022/04/18 04:06:16;;;;;;;15.70;8.60;;;;;;;;;;4974878;28;20146;-84
2022/04/18 04:08:42;;;;;;;14.98;8.63;;;;;;;;;;4989410;28;20094;-84
2022/04/18 04:11:10;;;;;;;14.70;8.77;;;;;;;;;;4982997;28;20055;-84
2022/04/18 04:13:36;;;;;;;14.95;8.52;;;;;;;;;;4976664;28;20055;-84
2022/04/18 04:16:03;;;;;;;16.30;8.60;;;;;;;;;;4982053;28;20061;-85
2022/04/18 04:18:29;;;;;;;16.23;9.48;;;;;;;;;;4977604;28;20078;-84
2022/04/18 04:20:55;;;;;;;16.70;8.05;;;;;;;;;;4978319;28;20075;-84
2022/04/18 04:23:22;;;;;;;13.43;7.65;;;;;;;;;;4976271;28;20137;-84
2022/04/18 04:26:08;;;;;;;14.18;8.45;;;;;;;;;;4992306;28;20525;-83
2022/04/18 04:28:34;;;;;;;15.57;8.30;;;;;;;;;;4975827;28;20109;-82
2022/04/18 04:31:06;;;;;;;12.55;7.57;;;;;;;;;;4994028;28;20051;-82
2022/04/18 04:33:32;;;;;;;13.73;8.07;;;;;;;;;;4986247;28;20168;-82
2022/04/18 04:35:59;;;;;;;12.68;7.60;;;;;;;;;;4972645;28;20106;-83
2022/04/18 04:38:25;;;;;;;14.30;8.45;;;;;;;;;;4983045;28;20105;-84
2022/04/18 04:40:55;;;;;;;16.88;8.25;;;;;;;;;;4974738;28;20090;-84
2022/04/18 04:43:27;;;;;;;12.35;7.68;;;;;;;;;;4988165;28;20137;-82
2022/04/18 04:45:55;;;;;;;11.65;7.70;;;;;;;;;;5002763;28;20059;-82
2022/04/18 04:48:24;;;;;;;14.00;8.35;;;;;;;;;;4990338;28;20055;-84
2022/04/18 04:50:51;;;;;;;12.82;7.78;;;;;;;;;;4992465;28;20054;-85
2022/04/18 04:53:18;;;;;;;12.77;7.50;;;;;;;;;;4975451;28;20055;-83
2022/04/18 04:55:45;;;;;;;14.45;8.18;;;;;;;;;;4993101;28;20112;-83
2022/04/18 04:58:11;;;;;;;14.25;7.80;;;;;;;;;;4991801;28;20082;-83
2022/04/18 05:00:38;;;;;;;13.88;7.45;;;;;;;;;;4995584;28;20549;-84
2022/04/18 05:03:04;;;;;;;12.68;7.38;;;;;;;;;;4975426;28;20156;-83
2022/04/18 05:05:32;;;;;;;13.82;7.53;;;;;;;;;;4979959;28;20086;-83
2022/04/18 05:07:59;;;;;;;16.58;7.55;;;;;;;;;;5008773;28;20114;-83
2022/04/18 05:10:25;;;;;;;14.85;7.30;;;;;;;;;;4983640;28;22026;-83
2022/04/18 05:12:51;;;;;;;11.00;7.00;;;;;;;;;;4978003;28;20051;-83
2022/04/18 05:15:19;;;;;;;13.75;7.22;;;;;;;;;;4977077;28;20512;-83
2022/04/18 05:17:45;;;;;;;13.38;7.60;;;;;;;;;;4977437;28;20564;-83
2022/04/18 05:20:11;;;;;;;13.10;7.65;;;;;;;;;;5002744;28;20081;-83
2022/04/18 05:22:38;;;;;;;16.88;7.93;;;;;;;;;;4990085;28;20122;-84
2022/04/18 05:25:04;;;;;;;14.40;7.65;;;;;;;;;;4974089;28;20153;-85
2022/04/18 05:27:31;;;;;;;14.30;7.93;;;;;;;;;;4992303;28;20153;-82
2022/04/18 05:29:57;;;;;;;14.95;7.40;;;;;;;;;;4996376;28;20170;-83
2022/04/18 05:32:23;;;;;;;12.25;7.25;;;;;;;;;;4980631;28;20058;-83
2022/04/18 05:34:50;;;;;;;11.90;7.35;;;;;;;;;;4981168;28;20165;-82
2022/04/18 05:37:16;;;;;;;13.25;7.05;;;;;;;;;;4987754;28;20086;-82
2022/04/18 05:39:42;;;;;;;11.63;7.30;;;;;;;;;;4974940;28;20094;-82
2022/04/18 05:42:09;;;;;;;11.23;7.00;;;;;;;;;;4982333;28;20151;-83
2022/04/18 05:44:35;;;;;;;11.90;7.10;;;;;;;;;;4980820;28;20141;-84
2022/04/18 05:47:02;;;;;;;13.23;7.43;;;;;;;;;;4980346;28;20082;-83
2022/04/18 05:49:28;;;;;;;13.07;7.20;;;;;;;;;;4973909;28;20058;-84
2022/04/18 05:51:54;;;;;;;13.00;7.15;;;;;;;;;;4973051;28;20513;-83
2022/04/18 05:54:21;;;;;;;13.82;7.60;;;;;;;;;;4997585;28;20145;-83
2022/04/18 05:56:47;;;;;;;14.57;7.25;;;;;;;;;;4997660;28;20150;-82
2022/04/18 05:59:13;;;;;;;13.43;7.18;;;;;;;;;;4979920;28;20114;-83
2022/04/18 06:01:40;;;;;;;15.20;7.63;;;;;;;;;;4978216;28;20117;-83
2022/04/18 06:04:07;;;;;;;13.65;7.63;;;;;;;;;;4974985;28;20110;-83
2022/04/18 06:06:33;;;;;;;12.32;7.35;;;;;;;;;;4992108;28;20374;-84
2022/04/18 06:09:00;;;;;;;14.77;7.13;;;;;;;;;;4993195;28;20624;-83
2022/04/18 06:11:26;;;;;;;11.23;6.78;;;;;;;;;;4974751;28;20137;-84
2022/04/18 06:13:52;;;;;;;11.55;7.18;;;;;;;;;;4972370;28;20138;-83
2022/04/18 06:16:18;;;;;;;12.85;7.10;;;;;;;;;;4983607;28;20146;-85
2022/04/18 06:18:45;;;;;;;10.65;6.55;;;;;;;;;;4991583;28;20509;-86
2022/04/18 06:21:12;;;;;;;11.23;7.28;;;;;;;;;;4981613;28;20133;-83
2022/04/18 06:23:38;;;;;;;11.75;6.90;;;;;;;;;;4977038;28;20182;-83
2022/04/18 06:26:04;;;;;;;9.93;6.13;;;;;;;;;;5001327;28;20055;-84
2022/04/18 06:28:31;;;;;;;10.07;5.95;;;;;;;;;;4991041;28;20070;-85
2022/04/18 06:30:57;;;;;;;10.68;5.80;;;;;;;;;;4977694;28;20556;-85
2022/04/18 06:33:23;;;;;;;9.20;4.57;;;;;;;;;;4997216;28;20161;-85
2022/04/18 06:35:50;;;;;;;8.68;4.80;;;;;;;;;;4976019;28;20089;-84
2022/04/18 06:38:17;;;;;;;7.82;3.75;;;;;;;;;;4971494;28;20133;-80
2022/04/18 06:40:44;;;;;;;9.95;4.60;;;;;;;;;;4983077;28;20081;-84
2022/04/18 06:43:10;;;;;;;10.30;4.60;;;;;;;;;;4999040;28;20050;-84
2022/04/18 06:45:36;;;;;;;7.07;3.95;;;;;;;;;;4999579;28;20046;-82
2022/04/18 06:48:03;;;;;;;7.05;3.80;;;;;;;;;;4995994;28;20055;-82
2022/04/18 06:50:29;;;;;;;6.65;3.33;;;;;;;;;;4978331;28;20138;-82
2022/04/18 06:52:56;;;;;;;6.97;3.78;;;;;;;;;;4988870;28;20054;-81
2022/04/18 06:55:22;;;;;;;10.15;4.07;;;;;;;;;;4987152;28;20086;-83
2022/04/18 06:57:50;;;;;;;7.75;3.63;;;;;;;;;;4990778;28;20852;-84
2022/04/18 07:00:17;;;;;;;7.07;3.97;;;;;;;;;;4999674;28;20066;-81
2022/04/18 07:02:44;;;;;;;6.15;3.40;;;;;;;;;;5004666;28;20091;-86
2022/04/18 07:05:11;;;;;;;6.80;3.70;;;;;;;;;;5000265;28;20055;-81
2022/04/18 07:07:37;;;;;;;9.40;3.88;;;;;;;;;;5000275;28;20541;-86
2022/04/18 07:10:04;;;;;;;6.70;3.63;;;;;;;;;;5003051;28;20058;-87
2022/04/18 07:12:30;;;;;;;7.15;3.97;;;;;;;;;;4983710;28;20133;-85
2022/04/18 07:14:59;;;;;;;7.43;4.07;;;;;;;;;;4997722;28;20042;-85
2022/04/18 07:17:25;;;;;;;6.05;3.45;;;;;;;;;;4988911;28;20146;-85
2022/04/18 07:19:52;;;;;;;6.50;3.70;;;;;;;;;;5022124;28;20979;-85
2022/04/18 07:22:18;;;;;;;6.85;3.90;;;;;;;;;;5026643;28;20117;-88
2022/04/18 07:24:44;;;;;;;6.60;3.78;;;;;;;;;;4991526;28;20066;-86
2022/04/18 07:27:11;;;;;;;5.95;3.03;;;;;;;;;;5005477;28;20998;-85
2022/04/18 07:29:37;;;;;;;8.52;3.58;;;;;;;;;;4983940;28;20146;-87
2022/04/18 07:32:05;;;;;;;7.38;3.33;;;;;;;;;;4999578;28;20047;-89
2022/04/18 07:34:33;;;;;;;8.73;3.30;;;;;;;;;;4987481;28;20903;-85
2022/04/18 07:36:59;;;;;;;5.47;3.00;;;;;;;;;;4987419;28;20058;-86
2022/04/18 07:39:26;;;;;;;7.30;3.05;;;;;;;;;;4987884;28;20046;-86
2022/04/18 07:41:52;;;;;;;6.15;3.45;;;;;;;;;;4986591;28;20050;-85
2022/04/18 07:44:20;;;;;;;5.15;3.10;;;;;;;;;;4986940;28;20090;-85
2022/04/18 07:46:47;;;;;;;6.88;3.25;;;;;;;;;;5005396;28;20443;-83
2022/04/18 07:49:13;;;;;;;5.65;3.00;;;;;;;;;;5002336;28;20042;-87
2022/04/18 07:51:41;;;;;;;5.50;3.13;;;;;;;;;;4992212;28;20051;-85
2022/04/18 07:54:09;;;;;;;5.65;3.22;;;;;;;;;;5006241;28;20051;-87
2022/04/18 07:56:36;;;;;;;6.22;2.90;;;;;;;;;;4988500;28;20055;-86
2022/04/18 07:59:02;;;;;;;5.95;3.13;;;;;;;;;;4990277;28;20117;-86
2022/04/18 08:01:29;;;;;;;5.38;3.20;;;;;;;;;;4991466;28;20066;-82
2022/04/18 08:03:57;;;;;;;5.00;2.88;;;;;;;;;;4992660;28;20043;-87
2022/04/18 08:06:23;;;;;;;6.15;3.00;;;;;;;;;;5008697;28;20033;-85
2022/04/18 08:08:50;;;;;;;6.90;2.97;;;;;;;;;;5005448;28;20376;-83
2022/04/18 08:11:22;;;;;;;5.75;3.13;;;;;;;;;;4982871;28;21085;-84
2022/04/18 08:13:51;;;;;;;4.72;2.70;;;;;;;;;;4997242;28;20110;-86
2022/04/18 08:16:18;;;;;;;3.97;2.63;;;;;;;;;;4999324;28;20043;-85
2022/04/18 08:18:45;;;;;;;5.60;2.80;;;;;;;;;;5004910;28;20046;-84
2022/04/18 08:21:20;;;;;;;5.85;2.83;;;;;;;;;;5002906;28;20051;-86
2022/04/18 08:23:48;;;;;;;5.03;2.80;;;;;;;;;;5000153;28;20039;-81
2022/04/18 08:26:14;;;;;;;5.63;3.03;;;;;;;;;;4987351;28;20047;-82
2022/04/18 08:28:42;;;;;;;5.40;3.00;;;;;;;;;;5013885;28;20121;-79
2022/04/18 08:31:09;;;;;;;5.63;3.00;;;;;;;;;;4996180;28;20878;-81
2022/04/18 08:33:35;;;;;;;4.22;2.63;;;;;;;;;;5004989;28;20130;-85
2022/04/18 08:36:02;;;;;;;5.45;3.00;;;;;;;;;;5009891;28;20050;-86
2022/04/18 08:38:29;;;;;;;5.22;3.08;;;;;;;;;;4991358;28;20051;-84
2022/04/18 08:40:56;;;;;;;6.78;3.00;;;;;;;;;;5008262;28;20054;-82
2022/04/18 08:43:26;;;;;;;8.00;2.95;;;;;;;;;;5002145;28;20047;-84
2022/04/18 08:46:15;;;;;;;5.25;2.70;;;;;;;;;;4984221;28;20074;-85
2022/04/18 08:54:13;;;;;;;5.53;3.03;;;;;;;;;;5004644;28;20047;-82
2022/04/18 08:56:40;;;;;;;6.40;2.90;;;;;;;;;;4989453;28;20050;-82
2022/04/18 08:59:06;;;;;;;4.63;2.22;;;;;;;;;;4987474;28;20039;-82
2022/04/18 09:01:35;;;;;;;5.00;2.40;;;;;;;;;;5005107;28;20106;-83
2022/04/18 09:04:02;;;;;;;5.35;2.83;;;;;;;;;;4990626;28;20051;-83
2022/04/18 09:06:29;;;;;;;4.82;2.65;;;;;;;;;;5013828;28;20038;-80
2022/04/18 09:08:58;;;;;;;6.83;2.80;;;;;;;;;;5009081;28;20051;-83
2022/04/18 09:11:26;;;;;;;4.95;2.70;;;;;;;;;;5006037;28;20095;-80
2022/04/18 09:14:05;;;;;;;5.35;2.78;;;;;;;;;;5007974;28;20070;-83
2022/04/18 09:16:32;;;;;;;5.50;3.35;;;;;;;;;;4999826;28;20181;-84
2022/04/18 09:19:04;;;;;;;5.10;3.00;;;;;;;;;;5007064;28;20043;-86
2022/04/18 09:21:30;;;;;;;6.35;2.88;;;;;;;;;;4980476;28;20082;-85
2022/04/18 09:23:57;;;;;;;4.93;2.78;;;;;;;;;;5007062;28;20039;-84
2022/04/18 09:26:24;;;;;;;5.05;2.78;;;;;;;;;;5006411;28;20023;-82
2022/04/18 09:28:50;;;;;;;5.95;2.90;;;;;;;;;;4988624;28;20122;-84
2022/04/18 09:31:19;;;;;;;5.82;3.67;;;;;;;;;;4989098;28;20094;-80
2022/04/18 09:33:53;;;;;;;4.82;2.65;;;;;;;;;;5006021;28;20066;-84
2022/04/18 09:36:23;;;;;;;6.00;2.95;;;;;;;;;;5002868;28;20042;-83
2022/04/18 09:38:54;;;;;;;6.45;2.63;;;;;;;;;;4997091;28;20031;-83
2022/04/18 09:41:21;;;;;;;5.05;3.10;;;;;;;;;;5008546;28;20043;-83
2022/04/18 09:43:48;;;;;;;5.38;3.20;;;;;;;;;;4997942;28;20057;-84
2022/04/18 09:46:17;;;;;;;5.22;3.28;;;;;;;;;;4994000;28;20058;-84
2022/04/18 09:48:49;;;;;;;5.65;2.80;;;;;;;;;;4994088;28;20077;-84
2022/04/18 09:51:26;;;;;;;7.47;2.63;;;;;;;;;;5010310;28;20106;-85
2022/04/18 09:53:57;;;;;;;6.10;2.63;;;;;;;;;;5009540;28;20078;-85
2022/04/18 09:56:32;;;;;;;5.57;2.70;;;;;;;;;;4990242;28;20055;-83
2022/04/18 09:59:01;;;;;;;4.82;2.70;;;;;;;;;;5007881;28;20045;-84
2022/04/18 10:01:33;;;;;;;4.22;2.20;;;;;;;;;;4991893;28;20125;-85
2022/04/18 10:04:00;;;;;;;4.80;2.40;;;;;;;;;;4989611;28;20069;-83
2022/04/18 10:06:26;;;;;;;6.10;2.40;;;;;;;;;;4993698;28;20133;-83
2022/04/18 10:08:53;;;;;;;5.47;2.13;;;;;;;;;;4990381;28;20114;-84
2022/04/18 10:11:22;;;;;;;4.45;2.00;;;;;;;;;;5005833;28;20047;-82
2022/04/18 10:13:49;;;;;;;5.80;2.30;;;;;;;;;;5005337;28;20062;-82
2022/04/18 10:16:15;;;;;;;5.10;2.10;;;;;;;;;;5006031;28;20047;-84
2022/04/18 10:18:45;;;;;;;3.70;2.00;;;;;;;;;;5009023;28;20049;-83
2022/04/18 10:21:24;;;;;;;5.60;2.03;;;;;;;;;;5009805;28;20074;-83
2022/04/18 10:24:09;;;;;;;3.75;2.13;;;;;;;;;;5008993;28;20054;-82
2022/04/18 10:26:38;;;;;;;4.28;2.25;;;;;;;;;;5007812;28;20054;-82
2022/04/18 10:29:10;;;;;;;4.93;2.15;;;;;;;;;;4994873;28;20046;-82
2022/04/18 10:31:42;;;;;;;4.20;2.13;;;;;;;;;;5005597;28;20042;-82
2022/04/18 10:34:08;;;;;;;;;;;;;;;;;;4990752;28;20062;-83
2022/04/18 10:36:35;;;;;;;3.90;2.03;;;;;;;;;;4990469;28;45790;-82
2022/04/18 10:39:03;;;;;;;4.30;1.88;;;;;;;;;;4998190;28;20023;-84
2022/04/18 10:41:38;;;;;;;4.70;2.03;;;;;;;;;;4986777;28;20043;-82
2022/04/18 10:44:08;;;;;;;5.40;2.30;;;;;;;;;;4996321;28;20055;-85
2022/04/18 10:46:36;;;;;;;4.13;2.17;;;;;;;;;;4992947;28;20382;-81
2022/04/18 10:49:13;;;;;;;4.10;2.22;;;;;;;;;;4991477;28;20057;-83
2022/04/18 10:51:50;;;;;;;5.97;2.50;;;;;;;;;;5003416;28;20566;-82
2022/04/18 10:54:31;;;;;;;4.32;2.10;;;;;;;;;;4973457;28;20046;-83
2022/04/18 11:00:40;;;;;;;3.28;1.77;;;;;;;;;;4968085;28;20046;-80
2022/04/18 11:03:07;;;;;;;4.03;1.80;;;;;;;;;;4967318;28;20433;-82
2022/04/18 11:05:51;;;;;;;4.05;2.20;;;;;;;;;;4993557;28;20035;-81
2022/04/18 11:08:43;;;;;;;4.63;2.30;;;;;;;;;;5010198;28;20046;-84
2022/04/18 11:11:37;;;;;;;3.75;2.00;;;;;;;;;;5009063;28;20067;-82
2022/04/18 11:14:22;;;;;;;5.07;3.08;;;;;;;;;;4989369;28;20046;-83
2022/04/18 11:17:26;;;;;;;5.28;2.22;;;;;;;;;;5007992;28;20054;-83
2022/04/18 11:19:54;;;;;;;4.07;2.20;;;;;;;;;;4987739;28;20094;-83
2022/04/18 11:22:21;;;;;;;4.25;2.10;;;;;;;;;;5006008;28;20061;-83
2022/04/18 11:24:48;;;;;;;4.65;2.28;;;;;;;;;;5008123;28;20051;-82
2022/04/18 11:27:16;;;;;;;3.83;2.00;;;;;;;;;;4991198;28;20892;-85
2022/04/18 11:29:43;;;;;;;5.88;1.92;;;;;;;;;;4988124;28;20055;-82
2022/04/18 11:32:13;;;;;;;4.97;2.10;;;;;;;;;;4989107;28;20047;-82
2022/04/18 11:34:42;;;;;;;4.93;2.00;;;;;;;;;;5005250;28;21332;-80
2022/04/18 11:37:10;;;;;;;4.55;1.90;;;;;;;;;;4990472;28;20042;-83
2022/04/18 11:39:44;;;;;;;4.68;2.00;;;;;;;;;;5006440;28;20054;-83
2022/04/18 11:42:14;;;;;;;4.80;2.20;;;;;;;;;;5001469;28;20062;-81
2022/04/18 11:44:41;;;;;;;4.35;2.10;;;;;;;;;;5000302;28;20039;-83
2022/04/18 11:47:09;;;;;;;4.28;2.08;;;;;;;;;;4998787;28;20062;-81
2022/04/18 11:49:36;;;;;;;4.90;2.00;;;;;;;;;;4987404;28;20059;-83
2022/04/18 11:52:02;;;;;;;4.18;2.33;;;;;;;;;;5002512;28;20051;-83
2022/04/18 11:54:29;;;;;;;4.43;2.30;;;;;;;;;;4986166;28;20079;-82
2022/04/18 11:56:59;;;;;;;4.93;2.60;;;;;;;;;;5006166;28;20039;-82
2022/04/18 11:59:25;;;;;;;6.13;3.00;;;;;;;;;;4987860;28;20153;-80
2022/04/18 12:07:23;;;;;;;4.93;2.70;;;;;;;;;;5008427;28;20047;-81
2022/04/18 12:09:49;;;;;;;4.40;2.72;;;;;;;;;;5006258;28;20054;-83
2022/04/18 12:12:26;;;;;;;6.18;3.13;;;;;;;;;;4990064;28;20081;-81
2022/04/18 12:14:53;;;;;;;6.95;2.78;;;;;;;;;;4978470;28;20043;-83
2022/04/18 12:17:19;;;;;;;4.75;2.95;;;;;;;;;;5003935;28;20043;-81
2022/04/18 12:19:46;;;;;;;6.63;3.15;;;;;;;;;;5005343;28;20079;-80
2022/04/18 12:22:20;;;;;;;5.80;3.47;;;;;;;;;;4988910;28;20073;-81
2022/04/18 12:24:47;;;;;;;5.45;3.10;;;;;;;;;;5005936;28;20055;-83
2022/04/18 12:27:14;;;;;;;5.63;3.58;;;;;;;;;;5006899;28;20075;-83
2022/04/18 12:29:40;;;;;;;5.32;3.35;;;;;;;;;;5007132;28;20046;-82
2022/04/18 12:32:22;;;;;;;5.95;3.10;;;;;;;;;;4988628;28;20043;-81
2022/04/18 12:34:48;;;;;;;9.60;3.25;;;;;;;;;;5009601;28;20055;-81
2022/04/18 12:37:15;;;;;;;6.60;3.70;;;;;;;;;;4991922;28;20055;-80
2022/04/18 12:39:41;;;;;;;4.40;3.05;;;;;;;;;;5010791;28;20030;-82
2022/04/18 12:42:11;;;;;;;6.75;3.28;;;;;;;;;;5011406;28;20133;-82
2022/04/18 12:44:39;;;;;;;6.78;3.25;;;;;;;;;;5012238;28;20078;-82
2022/04/18 12:47:16;;;;;;;5.53;3.30;;;;;;;;;;5008719;28;20106;-82
2022/04/18 12:50:01;;;;;;;6.00;3.42;;;;;;;;;;5010337;28;20055;-83
2022/04/18 12:52:28;;;;;;;4.68;3.00;;;;;;;;;;4994979;28;20094;-83
2022/04/18 12:55:03;;;;;;;5.57;3.22;;;;;;;;;;4999081;28;20046;-84
2022/04/18 12:57:31;;;;;;;6.53;3.15;;;;;;;;;;4987540;28;20039;-84
2022/04/18 13:00:14;;;;;;;5.43;3.08;;;;;;;;;;5007026;28;20099;-84
2022/04/18 13:03:01;;;;;;;5.22;2.95;;;;;;;;;;4981698;28;20050;-84
2022/04/18 13:05:29;;;;;;;5.88;3.40;;;;;;;;;;5007230;28;20047;-83
2022/04/18 13:07:56;;;;;;;5.85;3.40;;;;;;;;;;5013364;28;20062;-84
2022/04/18 13:10:26;;;;;;;5.75;3.22;;;;;;;;;;5003111;28;20051;-84
2022/04/18 13:12:52;;;;;;;;;;;;;;;;;;4992190;28;20035;-83
2022/04/18 13:15:24;;;;;;;6.57;3.05;;;;;;;;;;4991645;28;46280;-84
2022/04/18 13:17:57;;;;;;;5.60;3.00;;;;;;;;;;4995016;28;20043;-84
2022/04/18 13:20:24;;;;;;;5.53;3.50;;;;;;;;;;5005444;28;20047;-84
2022/04/18 13:22:50;;;;;;;5.75;3.85;;;;;;;;;;5011158;28;20046;-83
2022/04/18 13:25:17;;;;;;;5.45;3.80;;;;;;;;;;5009099;28;20034;-83
2022/04/18 13:27:51;;;;;;;5.43;3.20;;;;;;;;;;5009632;28;20070;-83
2022/04/18 13:30:18;;;;;;;4.55;2.63;;;;;;;;;;5010823;28;20483;-80
2022/04/18 13:32:44;;;;;;;4.70;2.85;;;;;;;;;;4988041;28;20110;-81
2022/04/18 13:35:10;;;;;;;5.43;2.63;;;;;;;;;;5002395;28;20046;-81
2022/04/18 13:37:37;;;;;;;5.95;3.15;;;;;;;;;;5007231;28;20197;-79
2022/04/18 13:40:04;;;;;;;4.80;2.72;;;;;;;;;;5005866;28;20106;-79
2022/04/18 13:42:31;;;;;;;5.03;2.92;;;;;;;;;;4984591;28;20134;-80
2022/04/18 13:45:03;;;;;;;5.00;3.10;;;;;;;;;;4999446;28;20063;-80
2022/04/18 13:47:30;;;;;;;5.00;3.10;;;;;;;;;;4976357;28;20063;-79
2022/04/18 13:49:58;;;;;;;5.38;3.47;;;;;;;;;;4995421;28;20055;-79
2022/04/18 13:52:24;;;;;;;4.82;3.03;;;;;;;;;;5001419;28;20035;-79
2022/04/18 13:54:51;;;;;;;6.40;2.90;;;;;;;;;;4999898;28;20043;-80
2022/04/18 13:57:17;;;;;;;8.75;3.10;;;;;;;;;;4986071;28;21312;-79
2022/04/18 13:59:44;;;;;;;6.03;3.28;;;;;;;;;;5004485;28;20054;-79
2022/04/18 14:02:10;;;;;;;6.88;3.50;;;;;;;;;;4993414;28;20058;-80
2022/04/18 14:04:37;;;;;;;5.78;3.25;;;;;;;;;;4988643;28;20055;-79
2022/04/18 14:07:03;;;;;;;5.95;3.20;;;;;;;;;;4998932;28;20059;-82
2022/04/18 14:09:30;;;;;;;6.13;3.60;;;;;;;;;;4999831;28;20070;-84
2022/04/18 14:11:57;;;;;;;5.65;3.58;;;;;;;;;;5020925;28;20042;-83
2022/04/18 14:22:38;;;;;;;6.60;3.72;;;;;;;;;;5008284;28;20063;-81
2022/04/18 14:25:05;;;;;;;6.22;4.18;;;;;;;;;;4990409;28;20027;-81
2022/04/18 14:27:32;;;;;;;5.63;3.80;;;;;;;;;;5002603;28;20569;-81
2022/04/18 14:29:58;;;;;;;6.00;3.90;;;;;;;;;;4985278;28;20111;-81
2022/04/18 14:32:28;;;;;;;5.45;3.40;;;;;;;;;;4982511;28;20059;-80
2022/04/18 14:34:54;;;;;;;5.88;3.60;;;;;;;;;;4995297;28;20067;-80
2022/04/18 14:37:22;;;;;;;5.93;3.53;;;;;;;;;;4982473;28;20062;-81
2022/04/18 14:39:54;;;;;;;5.68;3.38;;;;;;;;;;4983828;28;20086;-80
2022/04/18 14:42:24;;;;;;;6.57;3.70;;;;;;;;;;4981716;28;20110;-81
2022/04/18 14:44:51;;;;;;;6.38;4.00;;;;;;;;;;5000848;28;20070;-81
2022/04/18 14:47:18;;;;;;;7.70;3.80;;;;;;;;;;4996510;28;20058;-81
2022/04/18 14:49:44;;;;;;;5.35;3.60;;;;;;;;;;5004425;28;20082;-80
2022/04/18 14:52:11;;;;;;;5.68;3.78;;;;;;;;;;4977322;28;20087;-80
2022/04/18 14:54:37;;;;;;;5.22;3.90;;;;;;;;;;4960913;28;20071;-80
2022/04/18 14:57:04;;;;;;;7.07;3.65;;;;;;;;;;4988514;28;20051;-80
2022/04/18 14:59:31;;;;;;;6.38;4.22;;;;;;;;;;4979195;28;20079;-79
2022/04/18 15:01:58;;;;;;;6.85;4.07;;;;;;;;;;4997880;28;20047;-80
2022/04/18 15:04:25;;;;;;;6.95;3.17;;;;;;;;;;4998753;28;20120;-80
2022/04/18 15:06:51;;;;;;;6.53;3.40;;;;;;;;;;5012254;28;20054;-81
2022/04/18 15:09:23;;;;;;;8.75;3.60;;;;;;;;;;4985252;28;20055;-80
2022/04/18 15:11:53;;;;;;;6.10;3.05;;;;;;;;;;4980487;28;20865;-81
2022/04/18 15:14:20;;;;;;;5.97;3.20;;;;;;;;;;4989934;28;20051;-80
2022/04/18 15:16:47;;;;;;;6.07;3.30;;;;;;;;;;4985309;28;20885;-81